createdAt,value
2023-07-29T00:01:10.425Z,16.73
2023-07-29T00:06:13.328Z,16.97
2023-07-29T00:11:16.234Z,15.87
2023-07-29T00:16:19.164Z,15.53
2023-07-29T00:21:22.120Z,15.00
2023-07-29T00:26:27.109Z,17.03
2023-07-29T00:31:30.058Z,16.93
2023-07-29T00:36:32.955Z,16.87
2023-07-29T00:41:35.773Z,15.83
2023-07-29T00:46:40.290Z,16.73
2023-07-29T00:51:43.222Z,18.60
2023-07-29T00:56:46.206Z,18.03
2023-07-29T01:01:49.313Z,24.70
2023-07-29T01:07:16.768Z,92.60
2023-07-29T01:12:39.650Z,69.43
2023-07-29T01:17:48.018Z,33.00
2023-07-29T01:22:51.067Z,34.20
2023-07-29T01:27:54.431Z,35.47
2023-07-29T01:33:11.763Z,30.90
2023-07-29T01:38:20.002Z,29.03
2023-07-29T01:43:24.747Z,26.83
2023-07-29T01:48:28.672Z,26.93
2023-07-29T01:53:31.472Z,29.70
2023-07-29T01:58:34.281Z,27.27
2023-07-29T02:03:37.082Z,25.33
2023-07-29T02:08:42.024Z,22.20
2023-07-29T02:13:45.029Z,19.10
2023-07-29T02:18:47.832Z,19.20
2023-07-29T02:23:50.661Z,18.70
2023-07-29T02:28:53.657Z,18.27
2023-07-29T02:33:57.018Z,17.23
2023-07-29T02:38:59.942Z,18.17
2023-07-29T02:44:04.483Z,17.97
2023-07-29T02:49:07.285Z,17.53
2023-07-29T02:54:10.110Z,16.97
2023-07-29T02:59:12.955Z,16.67
2023-07-29T03:04:15.770Z,16.60
2023-07-29T03:09:18.590Z,16.07
2023-07-29T03:14:22.008Z,16.60
2023-07-29T03:19:24.815Z,14.63
2023-07-29T03:24:27.596Z,14.67
2023-07-29T03:29:30.387Z,14.20
2023-07-29T03:34:33.231Z,15.07
2023-07-29T03:39:35.911Z,15.30
2023-07-29T03:44:40.590Z,14.70
2023-07-29T03:49:43.498Z,16.47
2023-07-29T03:54:46.300Z,14.73
2023-07-29T03:59:49.116Z,14.17
2023-07-29T04:04:52.136Z,14.33
2023-07-29T04:09:55.075Z,14.90
2023-07-29T04:14:57.874Z,15.83
2023-07-29T04:20:00.693Z,16.17
2023-07-29T04:25:05.746Z,15.37
2023-07-29T04:30:09.199Z,14.70
2023-07-29T04:35:12.082Z,16.83
2023-07-29T04:40:14.967Z,14.27
2023-07-29T04:45:17.824Z,14.90
2023-07-29T04:50:20.998Z,14.20
2023-07-29T04:55:23.859Z,13.77
2023-07-29T05:00:26.676Z,13.43
2023-07-29T05:05:29.485Z,12.70
2023-07-29T05:10:32.302Z,12.10
2023-07-29T05:15:35.173Z,12.50
2023-07-29T05:20:38.048Z,12.10
2023-07-29T05:25:41.000Z,11.07
2023-07-29T05:30:45.504Z,10.68
2023-07-29T05:35:48.671Z,11.00
2023-07-29T05:40:51.863Z,10.15
2023-07-29T05:45:54.941Z,10.40
2023-07-29T05:50:57.775Z,9.32
2023-07-29T05:56:00.565Z,8.80
2023-07-29T06:01:03.394Z,8.93
2023-07-29T06:06:06.281Z,8.07
2023-07-29T06:11:09.113Z,7.68
2023-07-29T06:16:11.966Z,7.55
2023-07-29T06:21:18.282Z,7.85
2023-07-29T06:26:21.306Z,7.43
2023-07-29T06:31:24.315Z,7.30
2023-07-29T06:36:27.253Z,7.97
2023-07-29T06:41:30.054Z,7.40
2023-07-29T06:46:32.999Z,7.30
2023-07-29T06:51:36.812Z,7.22
2023-07-29T06:56:39.768Z,6.78
2023-07-29T07:01:42.667Z,6.35
2023-07-29T07:06:45.554Z,7.05
2023-07-29T07:11:48.827Z,6.93
2023-07-29T07:16:51.691Z,6.80
2023-07-29T07:21:54.573Z,6.40
2023-07-29T07:26:57.452Z,6.55
2023-07-29T07:32:00.818Z,6.55
2023-07-29T07:37:05.382Z,6.68
2023-07-29T07:42:08.276Z,6.68
2023-07-29T07:47:11.130Z,6.53
2023-07-29T07:52:13.927Z,9.65
2023-07-29T07:57:16.722Z,9.27
2023-07-29T08:02:19.778Z,7.47
2023-07-29T08:07:22.621Z,5.75
2023-07-29T08:12:25.416Z,4.47
2023-07-29T08:17:28.255Z,3.47
2023-07-29T08:22:31.098Z,3.90
2023-07-29T08:27:35.747Z,3.88
2023-07-29T08:32:38.810Z,3.25
2023-07-29T08:37:41.641Z,3.90
2023-07-29T08:42:47.106Z,3.53
2023-07-29T08:47:51.557Z,4.50
2023-07-29T08:52:54.609Z,4.03
2023-07-29T08:57:58.329Z,4.15
2023-07-29T09:03:07.369Z,4.00
2023-07-29T09:08:10.521Z,3.30
2023-07-29T09:13:13.316Z,3.45
2023-07-29T09:18:21.077Z,3.95
2023-07-29T09:23:24.031Z,3.33
2023-07-29T09:28:28.706Z,3.30
2023-07-29T09:33:38.775Z,3.63
2023-07-29T09:38:41.633Z,3.83
2023-07-29T09:43:44.470Z,3.25
2023-07-29T09:48:48.279Z,3.03
2023-07-29T09:53:53.151Z,3.40
2023-07-29T09:59:02.331Z,3.20
2023-07-29T10:04:09.483Z,3.13
2023-07-29T10:09:14.364Z,3.03
2023-07-29T10:14:20.057Z,2.42
2023-07-29T10:19:24.161Z,2.60
2023-07-29T10:24:33.547Z,2.58
2023-07-29T10:29:40.231Z,3.78
2023-07-29T10:34:44.094Z,2.90
2023-07-29T10:40:08.279Z,3.08
2023-07-29T10:45:23.703Z,3.00
2023-07-29T10:50:29.117Z,2.95
2023-07-29T10:55:39.364Z,2.85
2023-07-29T11:00:46.326Z,3.35
2023-07-29T11:05:51.308Z,3.30
2023-07-29T11:11:06.007Z,3.58
2023-07-29T11:16:10.930Z,2.78
2023-07-29T11:21:15.987Z,2.75
2023-07-29T11:26:18.790Z,2.65
2023-07-29T11:31:21.987Z,2.70
2023-07-29T11:36:25.511Z,2.70
2023-07-29T11:41:28.352Z,2.40
2023-07-29T11:46:31.188Z,2.22
2023-07-29T11:51:34.131Z,2.20
2023-07-29T11:56:37.558Z,2.60
2023-07-29T12:01:40.610Z,2.50
2023-07-29T12:06:43.776Z,3.70
2023-07-29T12:11:46.650Z,2.90
2023-07-29T12:16:50.606Z,2.75
2023-07-29T12:21:53.497Z,2.63
2023-07-29T12:26:56.298Z,2.30
2023-07-29T12:32:01.366Z,2.20
2023-07-29T12:37:06.100Z,2.30
2023-07-29T12:42:09.010Z,2.33
2023-07-29T12:47:12.925Z,2.40
2023-07-29T12:52:15.740Z,2.63
2023-07-29T12:57:18.522Z,2.25
2023-07-29T13:02:21.383Z,2.10
2023-07-29T13:07:24.252Z,2.10
2023-07-29T13:12:27.181Z,2.10
2023-07-29T13:17:30.018Z,2.10
2023-07-29T13:22:32.846Z,2.55
2023-07-29T13:27:35.698Z,2.08
2023-07-29T13:32:38.545Z,1.85
2023-07-29T13:37:41.373Z,1.90
2023-07-29T13:42:44.251Z,1.80
2023-07-29T13:47:47.115Z,1.90
2023-07-29T13:52:50.084Z,2.00
2023-07-29T13:57:55.073Z,2.20
2023-07-29T14:02:57.847Z,1.90
2023-07-29T14:08:00.769Z,1.92
2023-07-29T14:13:03.573Z,1.90
2023-07-29T14:18:07.589Z,1.90
2023-07-29T14:23:10.546Z,1.55
2023-07-29T14:28:15.283Z,1.40
2023-07-29T14:33:18.270Z,1.50
2023-07-29T14:38:21.142Z,1.60
2023-07-29T14:43:24.633Z,1.45
2023-07-29T14:48:27.884Z,1.35
2023-07-29T14:53:30.750Z,1.50
2023-07-29T14:58:33.544Z,1.60
2023-07-29T15:03:36.372Z,1.42
2023-07-29T15:08:39.206Z,1.60
2023-07-29T15:13:42.011Z,1.40
2023-07-29T15:18:44.881Z,1.60
2023-07-29T15:23:47.697Z,1.50
2023-07-29T15:28:50.568Z,1.60
2023-07-29T15:33:53.394Z,1.40
2023-07-29T15:38:56.265Z,1.58
2023-07-29T15:43:59.255Z,1.45
2023-07-29T15:49:02.092Z,1.85
2023-07-29T15:54:04.972Z,1.88
2023-07-29T15:59:07.852Z,1.77
2023-07-29T16:04:10.701Z,1.80
2023-07-29T16:09:13.527Z,1.80
2023-07-29T16:14:16.405Z,1.65
2023-07-29T16:19:25.814Z,1.42
2023-07-29T16:24:28.700Z,1.60
2023-07-29T16:29:31.496Z,1.60
2023-07-29T16:34:34.309Z,1.70
2023-07-29T16:39:37.432Z,1.58
2023-07-29T16:44:41.807Z,1.77
2023-07-29T16:49:44.684Z,2.05
2023-07-29T16:54:47.669Z,2.10
2023-07-29T16:59:50.478Z,1.85
2023-07-29T17:04:53.312Z,1.80
2023-07-29T17:09:56.125Z,1.92
2023-07-29T17:15:00.098Z,1.90
2023-07-29T17:20:03.647Z,2.20
2023-07-29T17:25:06.835Z,1.55
2023-07-29T17:30:10.180Z,1.58
2023-07-29T17:35:14.874Z,1.65
2023-07-29T17:40:17.762Z,1.25
2023-07-29T17:45:20.619Z,1.20
2023-07-29T17:50:23.996Z,1.27
2023-07-29T17:55:26.813Z,1.20
2023-07-29T18:00:29.624Z,1.17
2023-07-29T18:05:32.493Z,1.20
2023-07-29T18:10:35.310Z,1.35
2023-07-29T18:15:38.142Z,1.30
2023-07-29T18:20:40.989Z,1.30
2023-07-29T18:25:44.176Z,1.40
2023-07-29T18:30:48.661Z,1.73
2023-07-29T18:35:51.548Z,1.40
2023-07-29T18:40:54.337Z,1.35
2023-07-29T18:45:58.189Z,1.48
2023-07-29T18:51:01.932Z,1.70
2023-07-29T18:56:04.825Z,1.98
2023-07-29T19:01:08.000Z,1.80
2023-07-29T19:06:11.636Z,2.28
2023-07-29T19:11:16.229Z,2.08
2023-07-29T19:16:21.301Z,2.30
2023-07-29T19:21:25.214Z,2.50
2023-07-29T19:26:29.000Z,2.55
2023-07-29T19:31:31.863Z,2.72
2023-07-29T19:36:36.468Z,2.63
2023-07-29T19:41:39.514Z,2.60
2023-07-29T19:46:42.347Z,2.28
2023-07-29T19:51:45.293Z,2.33
2023-07-29T19:56:48.093Z,2.65
2023-07-29T20:01:51.121Z,2.63
2023-07-29T20:06:56.083Z,2.40
2023-07-29T20:11:58.905Z,2.35
2023-07-29T20:17:01.955Z,2.20
2023-07-29T20:22:04.990Z,2.45
2023-07-29T20:27:07.968Z,2.42
2023-07-29T20:32:10.787Z,2.38
2023-07-29T20:37:13.605Z,2.90
2023-07-29T20:42:16.433Z,2.45
2023-07-29T20:47:19.291Z,2.53
2023-07-29T20:52:22.193Z,2.50
2023-07-29T20:57:25.043Z,2.50
2023-07-29T21:02:27.934Z,2.35
2023-07-29T21:07:31.593Z,2.30
2023-07-29T21:12:34.404Z,2.42
2023-07-29T21:17:37.501Z,2.10
2023-07-29T21:22:40.340Z,2.50
2023-07-29T21:27:43.495Z,2.20
2023-07-29T21:32:46.390Z,2.55
2023-07-29T21:37:49.232Z,3.35
2023-07-29T21:42:55.217Z,2.35
2023-07-29T21:47:58.229Z,2.50
2023-07-29T21:53:01.124Z,1.90
2023-07-29T21:58:03.945Z,2.67
2023-07-29T22:03:06.771Z,2.22
2023-07-29T22:08:09.618Z,2.17
2023-07-29T22:13:12.424Z,2.10
2023-07-29T22:18:15.277Z,2.17
2023-07-29T22:23:18.050Z,1.90
2023-07-29T22:28:20.975Z,1.90
2023-07-29T22:33:24.368Z,1.80
2023-07-29T22:38:27.809Z,2.25
2023-07-29T22:43:31.594Z,1.83
2023-07-29T22:48:34.456Z,2.00
2023-07-29T22:53:37.263Z,2.00
2023-07-29T22:58:40.116Z,2.50
2023-07-29T23:03:43.005Z,2.42
2023-07-29T23:08:45.912Z,2.55
2023-07-29T23:13:48.685Z,2.60
2023-07-29T23:18:51.495Z,2.25
2023-07-29T23:23:54.329Z,2.60
2023-07-29T23:28:57.133Z,2.50
2023-07-29T23:34:00.436Z,2.85
2023-07-29T23:39:03.272Z,2.55
2023-07-29T23:44:06.066Z,2.50
2023-07-29T23:49:08.900Z,2.28
2023-07-29T23:54:11.747Z,2.25
2023-07-29T23:59:14.628Z,2.10
